sensor_id;sensor_type;location;lat;lon;timestamp;pressure;altitude;pressure_sealevel;temperature;humidity
44079;BME280;29744;49.078;12.878;2024-03-23T00:55:49;95764.28;;;14.34;39.05
44079;BME280;29744;49.078;12.878;2024-03-23T01:00:49;95756.50;;;14.33;38.75
44079;BME280;29744;49.078;12.878;2024-03-23T01:05:50;95756.50;;;14.33;38.77
44079;BME280;29744;49.078;12.878;2024-03-23T01:11:00;95748.41;;;14.33;38.88
44079;BME280;29744;49.078;12.878;2024-03-23T01:16:01;95742.25;;;14.32;38.75
44079;BME280;29744;49.078;12.878;2024-03-23T01:21:02;95744.94;;;14.32;38.87
44079;BME280;29744;49.078;12.878;2024-03-23T01:26:02;95746.50;;;14.33;38.72
44079;BME280;29744;49.078;12.878;2024-03-23T01:31:03;95726.84;;;14.33;38.84
44079;BME280;29744;49.078;12.878;2024-03-23T01:36:03;95714.47;;;14.32;38.91
44079;BME280;29744;49.078;12.878;2024-03-23T01:41:04;95712.56;;;14.32;39.10
44079;BME280;29744;49.078;12.878;2024-03-23T01:46:04;95701.00;;;14.32;39.13
44079;BME280;29744;49.078;12.878;2024-03-23T01:51:04;95692.91;;;14.32;39.01
44079;BME280;29744;49.078;12.878;2024-03-23T01:56:05;95687.50;;;14.32;38.47
44079;BME280;29744;49.078;12.878;2024-03-23T02:01:05;95681.34;;;14.31;38.85
44079;BME280;29744;49.078;12.878;2024-03-23T02:06:06;95672.47;;;14.31;38.67
44079;BME280;29744;49.078;12.878;2024-03-23T02:11:07;95670.53;;;14.31;38.65
44079;BME280;29744;49.078;12.878;2024-03-23T02:16:08;95661.31;;;14.32;38.66
44079;BME280;29744;49.078;12.878;2024-03-23T02:21:09;95649.75;;;14.32;39.21
44079;BME280;29744;49.078;12.878;2024-03-23T02:26:09;95642.00;;;14.30;38.76
44079;BME280;29744;49.078;12.878;2024-03-23T02:31:09;95627.38;;;14.31;39.14
44079;BME280;29744;49.078;12.878;2024-03-23T02:36:09;95626.59;;;14.31;38.93
44079;BME280;29744;49.078;12.878;2024-03-23T02:41:10;95622.78;;;14.32;38.80
44079;BME280;29744;49.078;12.878;2024-03-23T02:46:10;95619.28;;;14.31;38.81
44079;BME280;29744;49.078;12.878;2024-03-23T02:51:10;95609.63;;;14.30;38.80
44079;BME280;29744;49.078;12.878;2024-03-23T02:56:11;95614.25;;;14.30;38.59
44079;BME280;29744;49.078;12.878;2024-03-23T03:01:16;95614.25;;;14.30;39.09
44079;BME280;29744;49.078;12.878;2024-03-23T03:06:23;95606.94;;;14.30;38.71
44079;BME280;29744;49.078;12.878;2024-03-23T03:11:23;95601.88;;;14.29;38.65
44079;BME280;29744;49.078;12.878;2024-03-23T03:16:24;95591.09;;;14.29;38.61
44079;BME280;29744;49.078;12.878;2024-03-23T03:21:24;95586.50;;;14.29;39.07
44079;BME280;29744;49.078;12.878;2024-03-23T03:26:24;95579.53;;;14.28;38.63
44079;BME280;29744;49.078;12.878;2024-03-23T03:31:25;95576.81;;;14.28;38.79
44079;BME280;29744;49.078;12.878;2024-03-23T03:36:25;95565.25;;;14.28;39.07
44079;BME280;29744;49.078;12.878;2024-03-23T03:41:25;95556.03;;;14.29;39.23
44079;BME280;29744;49.078;12.878;2024-03-23T03:46:26;95557.94;;;14.28;38.87
44079;BME280;29744;49.078;12.878;2024-03-23T03:51:26;95551.78;;;14.28;39.03
44079;BME280;29744;49.078;12.878;2024-03-23T03:56:26;95550.19;;;14.27;38.71
44079;BME280;29744;49.078;12.878;2024-03-23T04:01:27;95552.56;;;14.28;38.72
44079;BME280;29744;49.078;12.878;2024-03-23T04:06:28;95545.59;;;14.27;38.56
44079;BME280;29744;49.078;12.878;2024-03-23T04:11:28;95549.06;;;14.28;39.05
44079;BME280;29744;49.078;12.878;2024-03-23T04:16:29;95524.03;;;14.27;38.74
44079;BME280;29744;49.078;12.878;2024-03-23T04:21:30;95511.31;;;14.28;38.60
44079;BME280;29744;49.078;12.878;2024-03-23T04:26:30;95500.09;;;14.26;39.10
44079;BME280;29744;49.078;12.878;2024-03-23T04:31:40;95512.44;;;14.27;38.52
44079;BME280;29744;49.078;12.878;2024-03-23T04:36:40;95489.31;;;14.26;38.94
44079;BME280;29744;49.078;12.878;2024-03-23T04:41:40;95473.91;;;14.26;38.88
44079;BME280;29744;49.078;12.878;2024-03-23T04:46:40;95463.91;;;14.27;38.59
44079;BME280;29744;49.078;12.878;2024-03-23T04:51:41;95479.75;;;14.28;38.87
44079;BME280;29744;49.078;12.878;2024-03-23T04:56:46;95484.44;;;14.31;38.79
44079;BME280;29744;49.078;12.878;2024-03-23T05:01:46;95468.34;;;14.35;38.82
44079;BME280;29744;49.078;12.878;2024-03-23T05:06:46;95448.78;;;14.38;38.90
44079;BME280;29744;49.078;12.878;2024-03-23T05:11:47;95450.44;;;14.42;38.52
44079;BME280;29744;49.078;12.878;2024-03-23T05:16:47;95448.28;;;14.48;38.45
44079;BME280;29744;49.078;12.878;2024-03-23T05:21:47;95418.69;;;14.52;38.73
44079;BME280;29744;49.078;12.878;2024-03-23T05:26:48;95433.84;;;14.56;38.52
44079;BME280;29744;49.078;12.878;2024-03-23T05:31:49;95408.84;;;14.59;38.79
44079;BME280;29744;49.078;12.878;2024-03-23T05:36:50;95415.91;;;14.64;38.41
44079;BME280;29744;49.078;12.878;2024-03-23T05:41:51;95411.72;;;14.66;38.75
44079;BME280;29744;49.078;12.878;2024-03-23T05:46:51;95384.03;;;14.69;38.54
44079;BME280;29744;49.078;12.878;2024-03-23T05:51:51;95387.19;;;14.71;38.20
44079;BME280;29744;49.078;12.878;2024-03-23T05:56:54;95395.72;;;14.73;38.66
44079;BME280;29744;49.078;12.878;2024-03-23T06:01:55;95391.53;;;14.76;38.71
44079;BME280;29744;49.078;12.878;2024-03-23T06:06:55;95377.25;;;14.75;38.44
44079;BME280;29744;49.078;12.878;2024-03-23T06:11:57;95377.34;;;14.79;38.43
44079;BME280;29744;49.078;12.878;2024-03-23T06:16:58;95371.94;;;14.79;38.40
44079;BME280;29744;49.078;12.878;2024-03-23T06:21:59;95359.22;;;14.79;38.09
44079;BME280;29744;49.078;12.878;2024-03-23T06:26:59;95360.00;;;14.80;38.45
44079;BME280;29744;49.078;12.878;2024-03-23T06:31:59;95352.69;;;14.80;38.01
44079;BME280;29744;49.078;12.878;2024-03-23T06:37:00;95354.25;;;14.81;38.26
44079;BME280;29744;49.078;12.878;2024-03-23T06:42:00;95350.44;;;14.82;38.52
44079;BME280;29744;49.078;12.878;2024-03-23T06:47:00;95340.75;;;14.81;37.98
44079;BME280;29744;49.078;12.878;2024-03-23T06:52:01;95328.84;;;14.82;38.18
44079;BME280;29744;49.078;12.878;2024-03-23T06:57:01;95291.03;;;14.82;38.27
44079;BME280;29744;49.078;12.878;2024-03-23T07:02:01;95296.44;;;14.82;38.58
44079;BME280;29744;49.078;12.878;2024-03-23T07:07:02;95294.09;;;14.81;37.95
44079;BME280;29744;49.078;12.878;2024-03-23T07:12:02;95303.75;;;14.82;38.12
44079;BME280;29744;49.078;12.878;2024-03-23T07:17:03;95289.47;;;14.81;38.11
44079;BME280;29744;49.078;12.878;2024-03-23T07:22:03;95295.66;;;14.82;38.58
44079;BME280;29744;49.078;12.878;2024-03-23T07:27:04;95269.44;;;14.82;38.20
44079;BME280;29744;49.078;12.878;2024-03-23T07:32:05;95254.41;;;14.81;38.48
44079;BME280;29744;49.078;12.878;2024-03-23T07:37:05;95268.25;;;14.80;38.48
44079;BME280;29744;49.078;12.878;2024-03-23T07:42:06;95283.66;;;14.79;38.39
44079;BME280;29744;49.078;12.878;2024-03-23T07:47:06;95283.66;;;14.79;38.04
44079;BME280;29744;49.078;12.878;2024-03-23T07:52:07;95278.25;;;14.79;38.21
44079;BME280;29744;49.078;12.878;2024-03-23T07:57:08;95276.69;;;14.78;37.96
44079;BME280;29744;49.078;12.878;2024-03-23T08:02:08;95275.56;;;14.79;38.38
44079;BME280;29744;49.078;12.878;2024-03-23T08:07:09;95257.78;;;14.78;38.57
44079;BME280;29744;49.078;12.878;2024-03-23T08:12:09;95266.69;;;14.79;38.42
44079;BME280;29744;49.078;12.878;2024-03-23T08:17:09;95288.63;;;14.77;38.13
44079;BME280;29744;49.078;12.878;2024-03-23T08:22:10;95293.22;;;14.77;38.61
44079;BME280;29744;49.078;12.878;2024-03-23T08:27:10;95297.84;;;14.76;38.08
44079;BME280;29744;49.078;12.878;2024-03-23T08:32:10;95347.56;;;14.75;38.21
44079;BME280;29744;49.078;12.878;2024-03-23T08:37:12;95359.13;;;14.76;38.42
44079;BME280;29744;49.078;12.878;2024-03-23T08:42:12;95395.00;;;14.76;38.31
44079;BME280;29744;49.078;12.878;2024-03-23T08:47:12;95424.25;;;14.74;38.25
44079;BME280;29744;49.078;12.878;2024-03-23T08:52:13;95409.19;;;14.73;38.16
44079;BME280;29744;49.078;12.878;2024-03-23T08:57:13;95428.09;;;14.73;38.50
44079;BME280;29744;49.078;12.878;2024-03-23T09:02:13;95440.81;;;14.73;38.19
44079;BME280;29744;49.078;12.878;2024-03-23T09:07:14;95440.03;;;14.72;38.39
44079;BME280;29744;49.078;12.878;2024-03-23T09:12:14;95441.94;;;14.72;38.22
44079;BME280;29744;49.078;12.878;2024-03-23T09:17:14;95453.88;;;14.71;38.65
44079;BME280;29744;49.078;12.878;2024-03-23T09:22:15;95450.38;;;14.70;38.11
44079;BME280;29744;49.078;12.878;2024-03-23T09:27:15;95463.88;;;14.70;38.67
44079;BME280;29744;49.078;12.878;2024-03-23T09:32:15;95434.53;;;14.69;38.42
44079;BME280;29744;49.078;12.878;2024-03-23T09:37:16;95452.66;;;14.68;38.84
44079;BME280;29744;49.078;12.878;2024-03-23T09:42:16;95432.97;;;14.68;38.65
44079;BME280;29744;49.078;12.878;2024-03-23T09:47:17;95465.34;;;14.68;38.62
44079;BME280;29744;49.078;12.878;2024-03-23T09:52:18;95464.56;;;14.67;38.49
44079;BME280;29744;49.078;12.878;2024-03-23T09:57:19;95478.06;;;14.67;38.52
44079;BME280;29744;49.078;12.878;2024-03-23T10:02:19;95466.47;;;14.67;38.51
44079;BME280;29744;49.078;12.878;2024-03-23T10:07:21;95453.78;;;14.67;38.83
44079;BME280;29744;49.078;12.878;2024-03-23T10:12:24;95473.78;;;14.66;38.92
44079;BME280;29744;49.078;12.878;2024-03-23T10:17:25;95471.09;;;14.66;38.50
44079;BME280;29744;49.078;12.878;2024-03-23T10:22:25;95473.78;;;14.66;38.76
44079;BME280;29744;49.078;12.878;2024-03-23T10:27:25;95482.66;;;14.67;38.89
44079;BME280;29744;49.078;12.878;2024-03-23T10:32:26;95478.41;;;14.66;38.96
44079;BME280;29744;49.078;12.878;2024-03-23T10:37:27;95473.00;;;14.66;38.68
44079;BME280;29744;49.078;12.878;2024-03-23T10:42:28;95473.78;;;14.66;38.55
44079;BME280;29744;49.078;12.878;2024-03-23T10:47:28;95483.81;;;14.66;38.81
44079;BME280;29744;49.078;12.878;2024-03-23T10:52:29;95521.59;;;14.66;38.76
44079;BME280;29744;49.078;12.878;2024-03-23T10:57:36;95526.97;;;14.66;38.83
44079;BME280;29744;49.078;12.878;2024-03-23T11:02:37;95544.31;;;14.65;38.62
44079;BME280;29744;49.078;12.878;2024-03-23T11:07:37;95555.09;;;14.65;38.73
44079;BME280;29744;49.078;12.878;2024-03-23T11:12:38;95559.72;;;14.64;38.86
44079;BME280;29744;49.078;12.878;2024-03-23T11:17:38;95567.03;;;14.64;38.48
44079;BME280;29744;49.078;12.878;2024-03-23T11:22:39;95564.31;;;14.64;38.70
44079;BME280;29744;49.078;12.878;2024-03-23T11:27:40;95572.41;;;14.64;38.40
44079;BME280;29744;49.078;12.878;2024-03-23T11:32:42;95585.91;;;14.64;38.73
44079;BME280;29744;49.078;12.878;2024-03-23T11:37:42;95572.41;;;14.64;38.61
44079;BME280;29744;49.078;12.878;2024-03-23T11:42:43;95577.03;;;14.63;38.89
44079;BME280;29744;49.078;12.878;2024-03-23T11:47:43;95569.72;;;14.64;38.97
44079;BME280;29744;49.078;12.878;2024-03-23T11:52:44;95592.09;;;14.64;38.89
44079;BME280;29744;49.078;12.878;2024-03-23T11:57:44;95613.34;;;14.66;38.76
44079;BME280;29744;49.078;12.878;2024-03-23T12:02:44;95629.88;;;14.64;38.41
44079;BME280;29744;49.078;12.878;2024-03-23T12:07:44;95644.16;;;14.65;38.96
44079;BME280;29744;49.078;12.878;2024-03-23T12:12:45;95656.84;;;14.64;38.77
44079;BME280;29744;49.078;12.878;2024-03-23T12:17:45;95659.56;;;14.64;38.63
44079;BME280;29744;49.078;12.878;2024-03-23T12:22:46;95646.06;;;14.64;38.98
44079;BME280;29744;49.078;12.878;2024-03-23T12:27:47;95631.44;;;14.65;38.81
44079;BME280;29744;49.078;12.878;2024-03-23T12:32:47;95624.91;;;14.66;38.94
44079;BME280;29744;49.078;12.878;2024-03-23T12:37:47;95632.22;;;14.66;38.66
44079;BME280;29744;49.078;12.878;2024-03-23T12:42:47;95630.66;;;14.65;38.64
44079;BME280;29744;49.078;12.878;2024-03-23T12:47:48;95639.88;;;14.64;38.92
44079;BME280;29744;49.078;12.878;2024-03-23T12:52:48;95674.97;;;14.64;38.70
44079;BME280;29744;49.078;12.878;2024-03-23T12:57:49;95711.94;;;14.63;38.71
44079;BME280;29744;49.078;12.878;2024-03-23T13:07:49;95680.34;;;14.64;38.57
44079;BME280;29744;49.078;12.878;2024-03-23T13:12:50;95672.94;;;14.61;38.82
44079;BME280;29744;49.078;12.878;2024-03-23T13:17:50;95654.06;;;14.61;38.97
44079;BME280;29744;49.078;12.878;2024-03-23T13:22:52;95671.03;;;14.61;38.83
44079;BME280;29744;49.078;12.878;2024-03-23T13:27:52;95666.75;;;14.60;38.72
44079;BME280;29744;49.078;12.878;2024-03-23T13:32:53;95655.97;;;14.60;39.05
44079;BME280;29744;49.078;12.878;2024-03-23T13:37:53;95659.78;;;14.59;38.79
44079;BME280;29744;49.078;12.878;2024-03-23T13:42:53;95674.06;;;14.60;38.70
44079;BME280;29744;49.078;12.878;2024-03-23T13:47:54;95681.38;;;14.59;39.00
44079;BME280;29744;49.078;12.878;2024-03-23T13:52:54;95677.91;;;14.59;38.94
44079;BME280;29744;49.078;12.878;2024-03-23T13:57:54;95678.69;;;14.59;38.96
44079;BME280;29744;49.078;12.878;2024-03-23T14:02:55;95692.50;;;14.58;38.64
44079;BME280;29744;49.078;12.878;2024-03-23T14:07:55;95692.50;;;14.58;38.62
44079;BME280;29744;49.078;12.878;2024-03-23T14:12:55;95680.16;;;14.57;38.64
44079;BME280;29744;49.078;12.878;2024-03-23T14:17:56;95692.84;;;14.56;39.24
44079;BME280;29744;49.078;12.878;2024-03-23T14:22:57;95696.34;;;14.57;39.22
44079;BME280;29744;49.078;12.878;2024-03-23T14:27:57;95693.66;;;14.57;39.11
44079;BME280;29744;49.078;12.878;2024-03-23T14:32:58;95681.28;;;14.56;38.96
44079;BME280;29744;49.078;12.878;2024-03-23T14:37:59;95675.09;;;14.55;38.91
44079;BME280;29744;49.078;12.878;2024-03-23T14:42:59;95662.72;;;14.54;39.25
44079;BME280;29744;49.078;12.878;2024-03-23T14:47:59;95665.44;;;14.54;38.89
44079;BME280;29744;49.078;12.878;2024-03-23T14:53:00;95684.31;;;14.54;39.09
44079;BME280;29744;49.078;12.878;2024-03-23T14:58:01;95697.81;;;14.54;39.12
44079;BME280;29744;49.078;12.878;2024-03-23T15:03:01;95692.41;;;14.54;39.03
44079;BME280;29744;49.078;12.878;2024-03-23T15:08:03;95688.16;;;14.53;38.66
44079;BME280;29744;49.078;12.878;2024-03-23T15:13:03;95686.56;;;14.52;39.24
44079;BME280;29744;49.078;12.878;2024-03-23T15:18:04;95690.06;;;14.53;38.67
44079;BME280;29744;49.078;12.878;2024-03-23T15:23:05;95695.78;;;14.51;39.02
44079;BME280;29744;49.078;12.878;2024-03-23T15:28:05;95683.09;;;14.52;39.06
44079;BME280;29744;49.078;12.878;2024-03-23T15:33:06;95679.94;;;14.49;39.02
44079;BME280;29744;49.078;12.878;2024-03-23T15:38:06;95683.44;;;14.50;39.32
44079;BME280;29744;49.078;12.878;2024-03-23T15:43:06;95685.34;;;14.49;39.10
44079;BME280;29744;49.078;12.878;2024-03-23T15:48:07;95681.84;;;14.49;38.90
44079;BME280;29744;49.078;12.878;2024-03-23T15:53:08;95670.28;;;14.48;38.74
44079;BME280;29744;49.078;12.878;2024-03-23T15:58:08;95661.41;;;14.48;39.05
44079;BME280;29744;49.078;12.878;2024-03-23T16:03:08;95643.63;;;14.47;38.83
44079;BME280;29744;49.078;12.878;2024-03-23T16:08:09;95639.03;;;14.47;39.06
44079;BME280;29744;49.078;12.878;2024-03-23T16:13:09;95630.16;;;14.47;38.84
44079;BME280;29744;49.078;12.878;2024-03-23T16:18:09;95638.25;;;14.47;39.34
44079;BME280;29744;49.078;12.878;2024-03-23T16:23:10;95642.84;;;14.46;38.71
44079;BME280;29744;49.078;12.878;2024-03-23T16:28:10;95633.19;;;14.45;38.97
44079;BME280;29744;49.078;12.878;2024-03-23T16:33:10;95633.97;;;14.46;39.21
44079;BME280;29744;49.078;12.878;2024-03-23T16:38:11;95632.06;;;14.46;39.00
44079;BME280;29744;49.078;12.878;2024-03-23T16:43:13;95613.53;;;14.45;38.73
44079;BME280;29744;49.078;12.878;2024-03-23T16:48:13;95610.81;;;14.45;38.84
44079;BME280;29744;49.078;12.878;2024-03-23T16:53:13;95620.03;;;14.44;38.98
44079;BME280;29744;49.078;12.878;2024-03-23T16:58:14;95644.31;;;14.44;38.98
44079;BME280;29744;49.078;12.878;2024-03-23T17:03:14;95651.63;;;14.43;38.87
44079;BME280;29744;49.078;12.878;2024-03-23T17:08:15;95661.63;;;14.43;38.73
44079;BME280;29744;49.078;12.878;2024-03-23T17:13:15;95661.63;;;14.43;39.09
44079;BME280;29744;49.078;12.878;2024-03-23T17:18:16;95673.56;;;14.42;38.86
44079;BME280;29744;49.078;12.878;2024-03-23T17:23:26;95670.84;;;14.42;38.96
44079;BME280;29744;49.078;12.878;2024-03-23T17:28:26;95690.09;;;14.40;39.28
44079;BME280;29744;49.078;12.878;2024-03-23T17:33:27;95706.25;;;14.40;38.98
44079;BME280;29744;49.078;12.878;2024-03-23T17:38:27;95772.91;;;14.40;39.04
44079;BME280;29744;49.078;12.878;2024-03-23T17:43:27;95797.19;;;14.40;38.95
44079;BME280;29744;49.078;12.878;2024-03-23T17:48:28;95765.94;;;14.39;38.72
44079;BME280;29744;49.078;12.878;2024-03-23T17:53:28;95771.34;;;14.39;38.85
44079;BME280;29744;49.078;12.878;2024-03-23T17:58:29;95769.78;;;14.38;39.07
44079;BME280;29744;49.078;12.878;2024-03-23T18:03:29;95783.25;;;14.38;39.22
44079;BME280;29744;49.078;12.878;2024-03-23T18:08:29;95795.19;;;14.37;38.74
44079;BME280;29744;49.078;12.878;2024-03-23T18:13:30;95793.59;;;14.36;38.81
44079;BME280;29744;49.078;12.878;2024-03-23T18:18:30;95792.81;;;14.35;38.77
44079;BME280;29744;49.078;12.878;2024-03-23T18:23:30;95788.22;;;14.36;39.05
44079;BME280;29744;49.078;12.878;2024-03-23T18:28:31;95780.44;;;14.34;39.02
44079;BME280;29744;49.078;12.878;2024-03-23T18:33:34;95772.38;;;14.34;38.81
44079;BME280;29744;49.078;12.878;2024-03-23T18:38:36;95771.56;;;14.34;39.04
44079;BME280;29744;49.078;12.878;2024-03-23T18:43:37;95764.59;;;14.33;38.97
44079;BME280;29744;49.078;12.878;2024-03-23T18:48:37;95773.50;;;14.33;39.13
44079;BME280;29744;49.078;12.878;2024-03-23T18:53:38;95760.34;;;14.32;38.92
44079;BME280;29744;49.078;12.878;2024-03-23T18:58:38;95771.13;;;14.32;38.77
44079;BME280;29744;49.078;12.878;2024-03-23T19:03:38;95762.25;;;14.31;38.69
44079;BME280;29744;49.078;12.878;2024-03-23T19:08:39;95766.84;;;14.31;39.17
44079;BME280;29744;49.078;12.878;2024-03-23T19:13:39;95764.16;;;14.31;38.80
44079;BME280;29744;49.078;12.878;2024-03-23T19:18:39;95767.19;;;14.29;39.01
44079;BME280;29744;49.078;12.878;2024-03-23T19:23:40;95769.88;;;14.29;39.12
44079;BME280;29744;49.078;12.878;2024-03-23T19:28:40;95769.88;;;14.29;38.88
44079;BME280;29744;49.078;12.878;2024-03-23T19:33:41;95760.66;;;14.30;39.27
44079;BME280;29744;49.078;12.878;2024-03-23T19:38:41;95761.78;;;14.29;38.98
44079;BME280;29744;49.078;12.878;2024-03-23T19:43:41;95771.47;;;14.30;39.06
44079;BME280;29744;49.078;12.878;2024-03-23T19:48:42;95773.81;;;14.32;38.94
44079;BME280;29744;49.078;12.878;2024-03-23T19:53:42;95768.44;;;14.32;38.93
44079;BME280;29744;49.078;12.878;2024-03-23T19:58:43;95769.22;;;14.32;39.14
44079;BME280;29744;49.078;12.878;2024-03-23T20:03:49;95766.50;;;14.32;38.89
44079;BME280;29744;49.078;12.878;2024-03-23T20:08:50;95759.22;;;14.33;39.03
44079;BME280;29744;49.078;12.878;2024-03-23T20:13:50;95754.59;;;14.33;38.96
44079;BME280;29744;49.078;12.878;2024-03-23T20:18:54;95755.38;;;14.34;39.06
44079;BME280;29744;49.078;12.878;2024-03-23T20:23:54;95756.97;;;14.35;38.67
44079;BME280;29744;49.078;12.878;2024-03-23T20:28:55;95762.03;;;14.36;38.57
44079;BME280;29744;49.078;12.878;2024-03-23T20:33:55;95768.19;;;14.37;38.70
44079;BME280;29744;49.078;12.878;2024-03-23T20:38:57;95760.91;;;14.37;38.60
44079;BME280;29744;49.078;12.878;2024-03-23T20:43:57;95758.19;;;14.37;38.90
44079;BME280;29744;49.078;12.878;2024-03-23T20:48:58;95759.78;;;14.38;38.84
44079;BME280;29744;49.078;12.878;2024-03-23T20:53:59;95767.06;;;14.38;39.30
44079;BME280;29744;49.078;12.878;2024-03-23T20:58:59;95760.91;;;14.37;38.81
44079;BME280;29744;49.078;12.878;2024-03-23T21:03:59;95755.94;;;14.39;38.61
44079;BME280;29744;49.078;12.878;2024-03-23T21:09:00;95742.81;;;14.38;38.70
44079;BME280;29744;49.078;12.878;2024-03-23T21:14:00;95736.28;;;14.39;38.75
44079;BME280;29744;49.078;12.878;2024-03-23T21:19:00;95728.19;;;14.39;38.93
44079;BME280;29744;49.078;12.878;2024-03-23T21:24:01;95734.72;;;14.38;38.70
44079;BME280;29744;49.078;12.878;2024-03-23T21:29:02;95722.34;;;14.37;38.55
44079;BME280;29744;49.078;12.878;2024-03-23T21:34:02;95719.66;;;14.37;38.81
44079;BME280;29744;49.078;12.878;2024-03-23T21:39:03;95730.44;;;14.37;39.10
44079;BME280;29744;49.078;12.878;2024-03-23T21:44:07;95712.69;;;14.36;39.09
44079;BME280;29744;49.078;12.878;2024-03-23T21:49:07;95711.91;;;14.35;38.62
44079;BME280;29744;49.078;12.878;2024-03-23T21:54:07;95713.81;;;14.35;38.89
44079;BME280;29744;49.078;12.878;2024-03-23T21:59:08;95704.94;;;14.34;38.93
44079;BME280;29744;49.078;12.878;2024-03-23T22:04:10;95696.06;;;14.34;38.86
44079;BME280;29744;49.078;12.878;2024-03-23T22:09:10;95697.19;;;14.33;38.98
44079;BME280;29744;49.078;12.878;2024-03-23T22:14:10;95704.47;;;14.32;38.89
44079;BME280;29744;49.078;12.878;2024-03-23T22:19:11;95717.19;;;14.32;39.27
44079;BME280;29744;49.078;12.878;2024-03-23T22:24:11;95715.28;;;14.32;38.85
44079;BME280;29744;49.078;12.878;2024-03-23T22:29:11;95721.78;;;14.31;39.08
44079;BME280;29744;49.078;12.878;2024-03-23T22:34:12;95729.88;;;14.31;38.59
44079;BME280;29744;49.078;12.878;2024-03-23T22:39:12;95722.91;;;14.30;39.04
44079;BME280;29744;49.078;12.878;2024-03-23T22:44:14;95725.59;;;14.30;38.71
44079;BME280;29744;49.078;12.878;2024-03-23T22:49:15;95720.56;;;14.29;38.80
44079;BME280;29744;49.078;12.878;2024-03-23T22:54:15;95698.97;;;14.29;38.60
44079;BME280;29744;49.078;12.878;2024-03-23T22:59:16;95700.88;;;14.28;39.14
44079;BME280;29744;49.078;12.878;2024-03-23T23:04:16;95690.44;;;14.27;38.52
44079;BME280;29744;49.078;12.878;2024-03-23T23:09:17;95696.63;;;14.27;38.66
44079;BME280;29744;49.078;12.878;2024-03-23T23:14:17;95688.53;;;14.27;38.75
44079;BME280;29744;49.078;12.878;2024-03-23T23:19:17;95695.06;;;14.26;39.24
44079;BME280;29744;49.078;12.878;2024-03-23T23:24:19;95687.75;;;14.27;38.73
44079;BME280;29744;49.078;12.878;2024-03-23T23:29:19;95688.88;;;14.26;38.90
44079;BME280;29744;49.078;12.878;2024-03-23T23:34:19;95688.88;;;14.26;38.63
44079;BME280;29744;49.078;12.878;2024-03-23T23:39:19;95700.00;;;14.24;38.69
44079;BME280;29744;49.078;12.878;2024-03-23T23:44:20;95700.78;;;14.25;39.02
44079;BME280;29744;49.078;12.878;2024-03-23T23:49:21;95704.59;;;14.24;38.61
44079;BME280;29744;49.078;12.878;2024-03-23T23:54:21;95708.44;;;14.23;38.96
44079;BME280;29744;49.078;12.878;2024-03-23T23:59:22;95706.50;;;14.23;38.91
